sensor_id;sensor_type;location;lat;lon;timestamp;temperature;humidity
71082;SHT31;58740;50.672;18.690;2022-12-13T00:01:55;-1.06;81.81
71082;SHT31;58740;50.672;18.690;2022-12-13T00:04:24;-1.01;81.79
71082;SHT31;58740;50.672;18.690;2022-12-13T00:06:52;-1.00;81.63
71082;SHT31;58740;50.672;18.690;2022-12-13T00:09:21;-1.03;81.52
71082;SHT31;58740;50.672;18.690;2022-12-13T00:11:49;-1.03;81.58
71082;SHT31;58740;50.672;18.690;2022-12-13T00:14:18;-1.02;81.63
71082;SHT31;58740;50.672;18.690;2022-12-13T00:16:46;-1.02;81.58
71082;SHT31;58740;50.672;18.690;2022-12-13T00:19:16;-1.04;81.54
71082;SHT31;58740;50.672;18.690;2022-12-13T00:21:45;-1.08;81.46
71082;SHT31;58740;50.672;18.690;2022-12-13T00:24:14;-1.11;81.53
71082;SHT31;58740;50.672;18.690;2022-12-13T00:26:42;-1.10;81.63
71082;SHT31;58740;50.672;18.690;2022-12-13T00:29:11;-1.10;81.44
71082;SHT31;58740;50.672;18.690;2022-12-13T00:31:39;-1.10;81.42
71082;SHT31;58740;50.672;18.690;2022-12-13T00:34:27;-1.12;81.35
71082;SHT31;58740;50.672;18.690;2022-12-13T00:36:56;-1.13;81.35
71082;SHT31;58740;50.672;18.690;2022-12-13T00:39:27;-1.13;81.30
71082;SHT31;58740;50.672;18.690;2022-12-13T00:41:55;-1.16;81.26
71082;SHT31;58740;50.672;18.690;2022-12-13T00:44:24;-1.20;81.19
71082;SHT31;58740;50.672;18.690;2022-12-13T00:46:52;-1.24;81.21
71082;SHT31;58740;50.672;18.690;2022-12-13T00:49:20;-1.28;81.10
71082;SHT31;58740;50.672;18.690;2022-12-13T00:51:47;-1.33;81.19
71082;SHT31;58740;50.672;18.690;2022-12-13T00:54:15;-1.35;81.18
71082;SHT31;58740;50.672;18.690;2022-12-13T00:56:44;-1.37;81.13
71082;SHT31;58740;50.672;18.690;2022-12-13T00:59:12;-1.38;81.10
71082;SHT31;58740;50.672;18.690;2022-12-13T01:01:41;-1.36;81.29
71082;SHT31;58740;50.672;18.690;2022-12-13T01:04:09;-1.33;81.15
71082;SHT31;58740;50.672;18.690;2022-12-13T01:06:41;-1.35;81.00
71082;SHT31;58740;50.672;18.690;2022-12-13T01:09:18;-1.36;80.94
71082;SHT31;58740;50.672;18.690;2022-12-13T01:11:50;-1.40;80.90
71082;SHT31;58740;50.672;18.690;2022-12-13T01:14:22;-1.42;81.11
71082;SHT31;58740;50.672;18.690;2022-12-13T01:16:50;-1.46;80.78
71082;SHT31;58740;50.672;18.690;2022-12-13T01:19:17;-1.50;80.96
71082;SHT31;58740;50.672;18.690;2022-12-13T01:21:45;-1.51;80.87
71082;SHT31;58740;50.672;18.690;2022-12-13T01:24:13;-1.52;80.73
71082;SHT31;58740;50.672;18.690;2022-12-13T01:26:41;-1.53;80.74
71082;SHT31;58740;50.672;18.690;2022-12-13T01:29:09;-1.51;80.72
71082;SHT31;58740;50.672;18.690;2022-12-13T01:31:37;-1.50;80.70
71082;SHT31;58740;50.672;18.690;2022-12-13T01:34:09;-1.50;80.95
71082;SHT31;58740;50.672;18.690;2022-12-13T01:36:39;-1.50;80.69
71082;SHT31;58740;50.672;18.690;2022-12-13T01:39:10;-1.54;80.55
71082;SHT31;58740;50.672;18.690;2022-12-13T01:41:42;-1.58;80.62
71082;SHT31;58740;50.672;18.690;2022-12-13T01:47:44;-1.63;80.72
71082;SHT31;58740;50.672;18.690;2022-12-13T01:50:15;-1.66;80.63
71082;SHT31;58740;50.672;18.690;2022-12-13T01:53:03;-1.66;80.75
71082;SHT31;58740;50.672;18.690;2022-12-13T01:55:35;-1.64;80.73
71082;SHT31;58740;50.672;18.690;2022-12-13T01:58:08;-1.63;80.50
71082;SHT31;58740;50.672;18.690;2022-12-13T02:00:39;-1.63;80.55
71082;SHT31;58740;50.672;18.690;2022-12-13T02:03:07;-1.59;80.71
71082;SHT31;58740;50.672;18.690;2022-12-13T02:06:09;-1.56;80.70
71082;SHT31;58740;50.672;18.690;2022-12-13T02:08:43;-1.54;80.71
71082;SHT31;58740;50.672;18.690;2022-12-13T02:11:13;-1.58;80.49
71082;SHT31;58740;50.672;18.690;2022-12-13T02:13:41;-1.62;80.30
71082;SHT31;58740;50.672;18.690;2022-12-13T02:18:57;-1.67;80.55
71082;SHT31;58740;50.672;18.690;2022-12-13T02:30:37;-1.64;80.71
71082;SHT31;58740;50.672;18.690;2022-12-13T02:38:58;-1.61;80.57
71082;SHT31;58740;50.672;18.690;2022-12-13T02:47:16;-1.71;80.55
71082;SHT31;58740;50.672;18.690;2022-12-13T02:49:50;-1.71;80.66
71082;SHT31;58740;50.672;18.690;2022-12-13T02:52:26;-1.70;80.72
71082;SHT31;58740;50.672;18.690;2022-12-13T02:54:57;-1.71;80.68
71082;SHT31;58740;50.672;18.690;2022-12-13T02:57:36;-1.70;80.61
71082;SHT31;58740;50.672;18.690;2022-12-13T03:00:08;-1.68;80.57
71082;SHT31;58740;50.672;18.690;2022-12-13T03:06:25;-1.63;80.51
71082;SHT31;58740;50.672;18.690;2022-12-13T03:12:33;-1.60;80.59
71082;SHT31;58740;50.672;18.690;2022-12-13T03:15:31;-1.59;80.79
71082;SHT31;58740;50.672;18.690;2022-12-13T03:18:11;-1.59;80.71
71082;SHT31;58740;50.672;18.690;2022-12-13T03:20:44;-1.63;80.59
71082;SHT31;58740;50.672;18.690;2022-12-13T03:23:23;-1.64;80.75
71082;SHT31;58740;50.672;18.690;2022-12-13T03:25:52;-1.65;80.79
71082;SHT31;58740;50.672;18.690;2022-12-13T03:28:23;-1.68;80.71
71082;SHT31;58740;50.672;18.690;2022-12-13T03:30:51;-1.68;80.82
71082;SHT31;58740;50.672;18.690;2022-12-13T03:33:18;-1.65;80.88
71082;SHT31;58740;50.672;18.690;2022-12-13T03:35:46;-1.62;80.92
71082;SHT31;58740;50.672;18.690;2022-12-13T03:38:15;-1.58;80.89
71082;SHT31;58740;50.672;18.690;2022-12-13T03:40:50;-1.57;80.89
71082;SHT31;58740;50.672;18.690;2022-12-13T03:43:40;-1.56;80.91
71082;SHT31;58740;50.672;18.690;2022-12-13T03:46:09;-1.56;80.91
71082;SHT31;58740;50.672;18.690;2022-12-13T03:48:37;-1.58;81.02
71082;SHT31;58740;50.672;18.690;2022-12-13T03:51:05;-1.59;81.12
71082;SHT31;58740;50.672;18.690;2022-12-13T03:53:33;-1.63;81.12
71082;SHT31;58740;50.672;18.690;2022-12-13T03:56:02;-1.65;81.22
71082;SHT31;58740;50.672;18.690;2022-12-13T03:58:32;-1.66;81.31
71082;SHT31;58740;50.672;18.690;2022-12-13T04:01:05;-1.65;81.30
71082;SHT31;58740;50.672;18.690;2022-12-13T04:03:36;-1.63;81.40
71082;SHT31;58740;50.672;18.690;2022-12-13T04:06:06;-1.60;81.41
71082;SHT31;58740;50.672;18.690;2022-12-13T04:08:35;-1.57;81.34
71082;SHT31;58740;50.672;18.690;2022-12-13T04:11:05;-1.57;81.32
71082;SHT31;58740;50.672;18.690;2022-12-13T04:13:53;-1.59;81.31
71082;SHT31;58740;50.672;18.690;2022-12-13T04:16:21;-1.60;81.39
71082;SHT31;58740;50.672;18.690;2022-12-13T04:18:50;-1.60;81.40
71082;SHT31;58740;50.672;18.690;2022-12-13T04:21:18;-1.61;81.35
71082;SHT31;58740;50.672;18.690;2022-12-13T04:23:46;-1.63;81.43
71082;SHT31;58740;50.672;18.690;2022-12-13T04:26:14;-1.64;81.57
71082;SHT31;58740;50.672;18.690;2022-12-13T04:28:42;-1.65;81.50
71082;SHT31;58740;50.672;18.690;2022-12-13T04:31:13;-1.70;81.51
71082;SHT31;58740;50.672;18.690;2022-12-13T04:33:41;-1.71;81.60
71082;SHT31;58740;50.672;18.690;2022-12-13T04:36:08;-1.70;81.64
71082;SHT31;58740;50.672;18.690;2022-12-13T04:38:36;-1.66;81.61
71082;SHT31;58740;50.672;18.690;2022-12-13T04:41:07;-1.65;81.50
71082;SHT31;58740;50.672;18.690;2022-12-13T04:43:43;-1.63;81.56
71082;SHT31;58740;50.672;18.690;2022-12-13T04:46:16;-1.61;81.56
71082;SHT31;58740;50.672;18.690;2022-12-13T04:48:46;-1.60;81.50
71082;SHT31;58740;50.672;18.690;2022-12-13T04:51:14;-1.61;81.46
71082;SHT31;58740;50.672;18.690;2022-12-13T04:53:43;-1.64;81.44
71082;SHT31;58740;50.672;18.690;2022-12-13T04:56:11;-1.66;81.57
71082;SHT31;58740;50.672;18.690;2022-12-13T04:58:38;-1.67;81.66
71082;SHT31;58740;50.672;18.690;2022-12-13T05:01:06;-1.68;81.66
71082;SHT31;58740;50.672;18.690;2022-12-13T05:03:37;-1.69;81.66
71082;SHT31;58740;50.672;18.690;2022-12-13T05:06:06;-1.68;81.70
71082;SHT31;58740;50.672;18.690;2022-12-13T05:08:54;-1.66;81.80
71082;SHT31;58740;50.672;18.690;2022-12-13T05:11:27;-1.63;81.70
71082;SHT31;58740;50.672;18.690;2022-12-13T05:14:02;-1.59;81.69
71082;SHT31;58740;50.672;18.690;2022-12-13T05:16:30;-1.60;81.53
71082;SHT31;58740;50.672;18.690;2022-12-13T05:18:58;-1.62;81.59
71082;SHT31;58740;50.672;18.690;2022-12-13T05:21:25;-1.65;81.60
71082;SHT31;58740;50.672;18.690;2022-12-13T05:23:53;-1.68;81.60
71082;SHT31;58740;50.672;18.690;2022-12-13T05:26:20;-1.70;81.61
71082;SHT31;58740;50.672;18.690;2022-12-13T05:28:48;-1.72;81.60
71082;SHT31;58740;50.672;18.690;2022-12-13T05:31:16;-1.76;81.69
71082;SHT31;58740;50.672;18.690;2022-12-13T05:33:53;-1.77;81.78
71082;SHT31;58740;50.672;18.690;2022-12-13T05:36:27;-1.75;81.74
71082;SHT31;58740;50.672;18.690;2022-12-13T05:38:55;-1.75;81.72
71082;SHT31;58740;50.672;18.690;2022-12-13T05:41:23;-1.72;81.68
71082;SHT31;58740;50.672;18.690;2022-12-13T05:43:53;-1.71;81.63
71082;SHT31;58740;50.672;18.690;2022-12-13T05:46:21;-1.71;81.50
71082;SHT31;58740;50.672;18.690;2022-12-13T05:48:49;-1.73;81.55
71082;SHT31;58740;50.672;18.690;2022-12-13T05:51:17;-1.74;81.60
71082;SHT31;58740;50.672;18.690;2022-12-13T05:53:45;-1.75;81.56
71082;SHT31;58740;50.672;18.690;2022-12-13T05:56:19;-1.78;81.52
71082;SHT31;58740;50.672;18.690;2022-12-13T05:58:49;-1.81;81.61
71082;SHT31;58740;50.672;18.690;2022-12-13T06:01:20;-1.85;81.50
71082;SHT31;58740;50.672;18.690;2022-12-13T06:03:47;-1.89;81.53
71082;SHT31;58740;50.672;18.690;2022-12-13T06:06:15;-1.90;81.64
71082;SHT31;58740;50.672;18.690;2022-12-13T06:08:47;-1.88;81.62
71082;SHT31;58740;50.672;18.690;2022-12-13T06:11:15;-1.87;81.65
71082;SHT31;58740;50.672;18.690;2022-12-13T06:13:58;-1.82;81.56
71082;SHT31;58740;50.672;18.690;2022-12-13T06:16:27;-1.81;81.52
71082;SHT31;58740;50.672;18.690;2022-12-13T06:18:55;-1.79;81.43
71082;SHT31;58740;50.672;18.690;2022-12-13T06:21:33;-1.81;81.42
71082;SHT31;58740;50.672;18.690;2022-12-13T06:24:16;-1.84;81.45
71082;SHT31;58740;50.672;18.690;2022-12-13T06:26:47;-1.83;81.54
71082;SHT31;58740;50.672;18.690;2022-12-13T06:29:17;-1.85;81.44
71082;SHT31;58740;50.672;18.690;2022-12-13T06:31:58;-1.86;81.38
71082;SHT31;58740;50.672;18.690;2022-12-13T06:34:31;-1.90;81.28
71082;SHT31;58740;50.672;18.690;2022-12-13T06:37:03;-1.94;81.19
71082;SHT31;58740;50.672;18.690;2022-12-13T06:39:34;-1.95;81.30
71082;SHT31;58740;50.672;18.690;2022-12-13T06:42:03;-1.96;81.22
71082;SHT31;58740;50.672;18.690;2022-12-13T06:44:33;-1.96;81.28
71082;SHT31;58740;50.672;18.690;2022-12-13T06:47:01;-1.94;81.07
71082;SHT31;58740;50.672;18.690;2022-12-13T06:49:39;-1.92;81.04
71082;SHT31;58740;50.672;18.690;2022-12-13T06:52:11;-1.91;80.94
71082;SHT31;58740;50.672;18.690;2022-12-13T06:54:40;-1.92;80.92
71082;SHT31;58740;50.672;18.690;2022-12-13T06:57:09;-1.94;80.99
71082;SHT31;58740;50.672;18.690;2022-12-13T06:59:38;-1.94;80.90
71082;SHT31;58740;50.672;18.690;2022-12-13T07:02:07;-1.96;80.93
71082;SHT31;58740;50.672;18.690;2022-12-13T07:04:53;-1.96;80.87
71082;SHT31;58740;50.672;18.690;2022-12-13T07:07:21;-1.99;80.73
71082;SHT31;58740;50.672;18.690;2022-12-13T07:09:52;-2.01;80.60
71082;SHT31;58740;50.672;18.690;2022-12-13T07:12:20;-2.02;80.68
71082;SHT31;58740;50.672;18.690;2022-12-13T07:14:49;-1.99;80.57
71082;SHT31;58740;50.672;18.690;2022-12-13T07:17:16;-1.95;80.43
71082;SHT31;58740;50.672;18.690;2022-12-13T07:20:05;-1.94;79.90
71082;SHT31;58740;50.672;18.690;2022-12-13T07:22:36;-1.93;79.69
71082;SHT31;58740;50.672;18.690;2022-12-13T07:25:13;-1.93;79.61
71082;SHT31;58740;50.672;18.690;2022-12-13T07:27:56;-1.95;79.47
71082;SHT31;58740;50.672;18.690;2022-12-13T07:30:31;-1.99;79.18
71082;SHT31;58740;50.672;18.690;2022-12-13T07:33:08;-2.02;79.00
71082;SHT31;58740;50.672;18.690;2022-12-13T07:35:36;-2.07;78.50
71082;SHT31;58740;50.672;18.690;2022-12-13T07:38:05;-2.12;78.41
71082;SHT31;58740;50.672;18.690;2022-12-13T07:40:35;-2.12;78.48
71082;SHT31;58740;50.672;18.690;2022-12-13T07:43:05;-2.11;78.41
71082;SHT31;58740;50.672;18.690;2022-12-13T07:45:33;-2.08;78.46
71082;SHT31;58740;50.672;18.690;2022-12-13T07:48:03;-2.04;78.46
71082;SHT31;58740;50.672;18.690;2022-12-13T07:50:32;-2.01;78.54
71082;SHT31;58740;50.672;18.690;2022-12-13T07:53:04;-1.99;78.31
71082;SHT31;58740;50.672;18.690;2022-12-13T07:55:34;-2.01;78.36
71082;SHT31;58740;50.672;18.690;2022-12-13T07:58:07;-2.02;78.08
71082;SHT31;58740;50.672;18.690;2022-12-13T08:00:39;-2.03;78.00
71082;SHT31;58740;50.672;18.690;2022-12-13T08:03:13;-2.04;78.07
71082;SHT31;58740;50.672;18.690;2022-12-13T08:05:59;-2.03;78.12
71082;SHT31;58740;50.672;18.690;2022-12-13T08:08:36;-2.04;77.96
71082;SHT31;58740;50.672;18.690;2022-12-13T08:11:06;-2.06;77.98
71082;SHT31;58740;50.672;18.690;2022-12-13T08:13:38;-2.09;78.06
71082;SHT31;58740;50.672;18.690;2022-12-13T08:16:08;-2.08;78.13
71082;SHT31;58740;50.672;18.690;2022-12-13T08:18:55;-2.09;78.07
71082;SHT31;58740;50.672;18.690;2022-12-13T08:21:33;-2.10;78.05
71082;SHT31;58740;50.672;18.690;2022-12-13T08:24:28;-2.09;78.11
71082;SHT31;58740;50.672;18.690;2022-12-13T08:26:58;-2.03;78.17
71082;SHT31;58740;50.672;18.690;2022-12-13T08:29:29;-1.96;78.13
71082;SHT31;58740;50.672;18.690;2022-12-13T08:32:07;-1.89;78.09
71082;SHT31;58740;50.672;18.690;2022-12-13T08:37:08;-1.82;77.90
71082;SHT31;58740;50.672;18.690;2022-12-13T08:39:37;-1.80;77.88
71082;SHT31;58740;50.672;18.690;2022-12-13T08:42:06;-1.80;77.87
71082;SHT31;58740;50.672;18.690;2022-12-13T08:44:46;-1.79;77.87
71082;SHT31;58740;50.672;18.690;2022-12-13T08:47:18;-1.76;77.86
71082;SHT31;58740;50.672;18.690;2022-12-13T08:49:58;-1.76;77.87
71082;SHT31;58740;50.672;18.690;2022-12-13T08:52:32;-1.78;77.68
71082;SHT31;58740;50.672;18.690;2022-12-13T08:55:08;-1.82;77.82
71082;SHT31;58740;50.672;18.690;2022-12-13T08:57:38;-1.83;77.94
71082;SHT31;58740;50.672;18.690;2022-12-13T09:00:08;-1.82;78.01
71082;SHT31;58740;50.672;18.690;2022-12-13T09:02:43;-1.82;77.97
71082;SHT31;58740;50.672;18.690;2022-12-13T09:05:12;-1.84;77.60
71082;SHT31;58740;50.672;18.690;2022-12-13T09:07:59;-1.83;77.73
71082;SHT31;58740;50.672;18.690;2022-12-13T09:10:29;-1.78;77.61
71082;SHT31;58740;50.672;18.690;2022-12-13T09:13:05;-1.75;77.35
71082;SHT31;58740;50.672;18.690;2022-12-13T09:15:38;-1.71;77.29
71082;SHT31;58740;50.672;18.690;2022-12-13T09:18:12;-1.67;77.49
71082;SHT31;58740;50.672;18.690;2022-12-13T09:20:50;-1.63;77.15
71082;SHT31;58740;50.672;18.690;2022-12-13T09:23:18;-1.65;76.93
71082;SHT31;58740;50.672;18.690;2022-12-13T09:25:54;-1.68;76.83
71082;SHT31;58740;50.672;18.690;2022-12-13T09:28:32;-1.70;76.88
71082;SHT31;58740;50.672;18.690;2022-12-13T09:31:09;-1.72;76.80
71082;SHT31;58740;50.672;18.690;2022-12-13T09:33:40;-1.75;76.73
71082;SHT31;58740;50.672;18.690;2022-12-13T09:36:12;-1.80;76.57
71082;SHT31;58740;50.672;18.690;2022-12-13T09:38:44;-1.87;76.14
71082;SHT31;58740;50.672;18.690;2022-12-13T09:43:56;-1.90;76.70
71082;SHT31;58740;50.672;18.690;2022-12-13T09:49:13;-1.87;76.62
71082;SHT31;58740;50.672;18.690;2022-12-13T09:52:02;-1.84;76.49
71082;SHT31;58740;50.672;18.690;2022-12-13T09:54:48;-1.83;76.54
71082;SHT31;58740;50.672;18.690;2022-12-13T09:57:26;-1.81;76.44
71082;SHT31;58740;50.672;18.690;2022-12-13T10:00:04;-1.82;76.19
71082;SHT31;58740;50.672;18.690;2022-12-13T10:02:44;-1.85;75.97
71082;SHT31;58740;50.672;18.690;2022-12-13T10:05:29;-1.85;76.35
71082;SHT31;58740;50.672;18.690;2022-12-13T10:08:18;-1.87;76.23
71082;SHT31;58740;50.672;18.690;2022-12-13T10:10:51;-1.87;76.29
71082;SHT31;58740;50.672;18.690;2022-12-13T10:13:37;-1.90;76.20
71082;SHT31;58740;50.672;18.690;2022-12-13T10:16:13;-1.91;76.31
71082;SHT31;58740;50.672;18.690;2022-12-13T10:19:17;-1.96;75.85
71082;SHT31;58740;50.672;18.690;2022-12-13T10:22:01;-1.97;76.16
71082;SHT31;58740;50.672;18.690;2022-12-13T10:27:26;-1.88;76.27
71082;SHT31;58740;50.672;18.690;2022-12-13T10:32:56;-1.85;75.78
71082;SHT31;58740;50.672;18.690;2022-12-13T10:35:28;-1.84;75.89
71082;SHT31;58740;50.672;18.690;2022-12-13T10:40:37;-1.85;75.89
71082;SHT31;58740;50.672;18.690;2022-12-13T10:43:16;-1.83;75.95
71082;SHT31;58740;50.672;18.690;2022-12-13T10:46:00;-1.82;75.89
71082;SHT31;58740;50.672;18.690;2022-12-13T10:48:45;-1.79;76.06
71082;SHT31;58740;50.672;18.690;2022-12-13T10:51:17;-1.78;75.50
71082;SHT31;58740;50.672;18.690;2022-12-13T10:56:38;-1.77;75.66
71082;SHT31;58740;50.672;18.690;2022-12-13T11:01:47;-1.74;75.65
71082;SHT31;58740;50.672;18.690;2022-12-13T11:07:20;-1.71;75.50
71082;SHT31;58740;50.672;18.690;2022-12-13T11:10:13;-1.67;75.37
71082;SHT31;58740;50.672;18.690;2022-12-13T11:13:00;-1.61;75.34
71082;SHT31;58740;50.672;18.690;2022-12-13T11:15:32;-1.54;75.42
71082;SHT31;58740;50.672;18.690;2022-12-13T11:18:05;-1.48;75.40
71082;SHT31;58740;50.672;18.690;2022-12-13T11:20:52;-1.44;75.23
71082;SHT31;58740;50.672;18.690;2022-12-13T11:23:34;-1.40;75.18
71082;SHT31;58740;50.672;18.690;2022-12-13T11:26:15;-1.44;74.65
71082;SHT31;58740;50.672;18.690;2022-12-13T11:35:00;-1.45;74.97
71082;SHT31;58740;50.672;18.690;2022-12-13T11:37:54;-1.48;74.69
71082;SHT31;58740;50.672;18.690;2022-12-13T11:40:46;-1.51;74.99
71082;SHT31;58740;50.672;18.690;2022-12-13T11:43:40;-1.54;75.09
71082;SHT31;58740;50.672;18.690;2022-12-13T11:46:18;-1.56;75.23
71082;SHT31;58740;50.672;18.690;2022-12-13T11:49:08;-1.59;75.20
71082;SHT31;58740;50.672;18.690;2022-12-13T11:51:47;-1.60;75.40
71082;SHT31;58740;50.672;18.690;2022-12-13T11:54:23;-1.55;75.62
71082;SHT31;58740;50.672;18.690;2022-12-13T12:00:19;-1.46;75.41
71082;SHT31;58740;50.672;18.690;2022-12-13T12:05:49;-1.41;75.69
71082;SHT31;58740;50.672;18.690;2022-12-13T12:08:33;-1.39;75.30
71082;SHT31;58740;50.672;18.690;2022-12-13T12:14:17;-1.45;75.06
71082;SHT31;58740;50.672;18.690;2022-12-13T12:16:57;-1.47;75.24
71082;SHT31;58740;50.672;18.690;2022-12-13T12:19:33;-1.50;75.26
71082;SHT31;58740;50.672;18.690;2022-12-13T12:22:19;-1.51;75.31
71082;SHT31;58740;50.672;18.690;2022-12-13T12:25:24;-1.53;75.17
71082;SHT31;58740;50.672;18.690;2022-12-13T12:28:36;-1.60;74.77
71082;SHT31;58740;50.672;18.690;2022-12-13T12:31:34;-1.59;75.09
71082;SHT31;58740;50.672;18.690;2022-12-13T12:34:47;-1.55;75.15
71082;SHT31;58740;50.672;18.690;2022-12-13T12:40:50;-1.52;75.24
71082;SHT31;58740;50.672;18.690;2022-12-13T12:44:14;-1.51;75.18
71082;SHT31;58740;50.672;18.690;2022-12-13T12:55:35;-1.65;75.35
71082;SHT31;58740;50.672;18.690;2022-12-13T13:04:28;-1.68;75.84
71082;SHT31;58740;50.672;18.690;2022-12-13T13:07:08;-1.72;75.70
71082;SHT31;58740;50.672;18.690;2022-12-13T13:09:50;-1.75;75.43
71082;SHT31;58740;50.672;18.690;2022-12-13T13:12:22;-1.78;75.62
71082;SHT31;58740;50.672;18.690;2022-12-13T13:14:57;-1.76;75.54
71082;SHT31;58740;50.672;18.690;2022-12-13T13:20:15;-1.74;75.31
71082;SHT31;58740;50.672;18.690;2022-12-13T13:22:47;-1.73;75.41
71082;SHT31;58740;50.672;18.690;2022-12-13T13:25:38;-1.73;75.34
71082;SHT31;58740;50.672;18.690;2022-12-13T13:28:25;-1.73;75.44
71082;SHT31;58740;50.672;18.690;2022-12-13T13:31:06;-1.72;75.45
71082;SHT31;58740;50.672;18.690;2022-12-13T13:33:57;-1.73;75.38
71082;SHT31;58740;50.672;18.690;2022-12-13T13:39:14;-1.81;75.36
71082;SHT31;58740;50.672;18.690;2022-12-13T13:41:52;-1.82;75.62
71082;SHT31;58740;50.672;18.690;2022-12-13T13:44:52;-1.85;75.64
71082;SHT31;58740;50.672;18.690;2022-12-13T13:47:32;-1.89;75.58
71082;SHT31;58740;50.672;18.690;2022-12-13T13:59:13;-2.01;75.85
71082;SHT31;58740;50.672;18.690;2022-12-13T14:10:41;-1.89;75.90
71082;SHT31;58740;50.672;18.690;2022-12-13T14:13:46;-1.86;75.86
71082;SHT31;58740;50.672;18.690;2022-12-13T14:28:13;-1.98;75.96
71082;SHT31;58740;50.672;18.690;2022-12-13T14:31:25;-2.01;75.98
71082;SHT31;58740;50.672;18.690;2022-12-13T14:34:07;-2.06;75.95
71082;SHT31;58740;50.672;18.690;2022-12-13T14:36:59;-2.09;76.04
71082;SHT31;58740;50.672;18.690;2022-12-13T14:39:31;-2.14;75.91
71082;SHT31;58740;50.672;18.690;2022-12-13T14:42:20;-2.18;75.99
71082;SHT31;58740;50.672;18.690;2022-12-13T14:45:11;-2.24;75.90
71082;SHT31;58740;50.672;18.690;2022-12-13T14:47:49;-2.31;75.85
71082;SHT31;58740;50.672;18.690;2022-12-13T14:50:21;-2.35;75.91
71082;SHT31;58740;50.672;18.690;2022-12-13T14:52:53;-2.37;75.99
71082;SHT31;58740;50.672;18.690;2022-12-13T14:55:29;-2.36;75.96
71082;SHT31;58740;50.672;18.690;2022-12-13T14:58:12;-2.34;75.89
71082;SHT31;58740;50.672;18.690;2022-12-13T15:00:44;-2.36;75.77
71082;SHT31;58740;50.672;18.690;2022-12-13T15:03:20;-2.40;75.74
71082;SHT31;58740;50.672;18.690;2022-12-13T15:05:52;-2.43;75.75
71082;SHT31;58740;50.672;18.690;2022-12-13T15:08:23;-2.48;75.74
71082;SHT31;58740;50.672;18.690;2022-12-13T15:10:53;-2.51;75.93
71082;SHT31;58740;50.672;18.690;2022-12-13T15:13:37;-2.56;75.87
71082;SHT31;58740;50.672;18.690;2022-12-13T15:16:21;-2.61;75.90
71082;SHT31;58740;50.672;18.690;2022-12-13T15:19:05;-2.65;75.98
71082;SHT31;58740;50.672;18.690;2022-12-13T15:21:59;-2.71;75.99
71082;SHT31;58740;50.672;18.690;2022-12-13T15:24:32;-2.75;76.05
71082;SHT31;58740;50.672;18.690;2022-12-13T15:27:07;-2.80;76.05
71082;SHT31;58740;50.672;18.690;2022-12-13T15:29:35;-2.84;76.01
71082;SHT31;58740;50.672;18.690;2022-12-13T15:32:04;-2.93;75.90
71082;SHT31;58740;50.672;18.690;2022-12-13T15:34:40;-3.00;76.04
71082;SHT31;58740;50.672;18.690;2022-12-13T15:39:55;-3.11;75.93
71082;SHT31;58740;50.672;18.690;2022-12-13T15:42:34;-3.13;75.95
71082;SHT31;58740;50.672;18.690;2022-12-13T15:45:06;-3.16;75.74
71082;SHT31;58740;50.672;18.690;2022-12-13T15:47:49;-3.19;75.77
71082;SHT31;58740;50.672;18.690;2022-12-13T15:50:33;-3.22;75.73
71082;SHT31;58740;50.672;18.690;2022-12-13T15:53:29;-3.28;75.82
71082;SHT31;58740;50.672;18.690;2022-12-13T15:55:58;-3.31;75.73
71082;SHT31;58740;50.672;18.690;2022-12-13T15:58:32;-3.38;75.54
71082;SHT31;58740;50.672;18.690;2022-12-13T16:01:03;-3.43;75.46
71082;SHT31;58740;50.672;18.690;2022-12-13T16:03:40;-3.49;75.29
71082;SHT31;58740;50.672;18.690;2022-12-13T16:06:18;-3.59;75.00
71082;SHT31;58740;50.672;18.690;2022-12-13T16:08:50;-3.69;74.68
71082;SHT31;58740;50.672;18.690;2022-12-13T16:11:24;-3.82;74.63
71082;SHT31;58740;50.672;18.690;2022-12-13T16:16:59;-4.06;75.04
71082;SHT31;58740;50.672;18.690;2022-12-13T16:19:37;-4.15;75.21
71082;SHT31;58740;50.672;18.690;2022-12-13T16:22:04;-4.24;75.44
71082;SHT31;58740;50.672;18.690;2022-12-13T16:24:35;-4.28;75.52
71082;SHT31;58740;50.672;18.690;2022-12-13T16:27:03;-4.32;75.35
71082;SHT31;58740;50.672;18.690;2022-12-13T16:29:35;-4.40;74.96
71082;SHT31;58740;50.672;18.690;2022-12-13T16:32:03;-4.50;74.85
71082;SHT31;58740;50.672;18.690;2022-12-13T16:34:35;-4.57;74.83
71082;SHT31;58740;50.672;18.690;2022-12-13T16:37:04;-4.63;74.80
71082;SHT31;58740;50.672;18.690;2022-12-13T16:39:52;-4.66;74.77
71082;SHT31;58740;50.672;18.690;2022-12-13T16:42:20;-4.71;74.82
71082;SHT31;58740;50.672;18.690;2022-12-13T16:44:54;-4.74;74.77
71082;SHT31;58740;50.672;18.690;2022-12-13T16:47:45;-4.78;74.69
71082;SHT31;58740;50.672;18.690;2022-12-13T16:50:17;-4.81;74.86
71082;SHT31;58740;50.672;18.690;2022-12-13T16:52:47;-4.82;74.97
71082;SHT31;58740;50.672;18.690;2022-12-13T16:55:15;-4.84;74.60
71082;SHT31;58740;50.672;18.690;2022-12-13T16:57:43;-4.91;73.92
71082;SHT31;58740;50.672;18.690;2022-12-13T17:00:22;-5.01;73.74
71082;SHT31;58740;50.672;18.690;2022-12-13T17:02:50;-5.11;73.62
71082;SHT31;58740;50.672;18.690;2022-12-13T17:05:20;-5.22;73.50
71082;SHT31;58740;50.672;18.690;2022-12-13T17:07:49;-5.31;73.20
71082;SHT31;58740;50.672;18.690;2022-12-13T17:10:17;-5.39;73.10
71082;SHT31;58740;50.672;18.690;2022-12-13T17:12:46;-5.50;73.13
71082;SHT31;58740;50.672;18.690;2022-12-13T17:15:13;-5.57;73.04
71082;SHT31;58740;50.672;18.690;2022-12-13T17:17:43;-5.65;73.03
71082;SHT31;58740;50.672;18.690;2022-12-13T17:20:16;-5.68;73.04
71082;SHT31;58740;50.672;18.690;2022-12-13T17:22:45;-5.70;73.42
71082;SHT31;58740;50.672;18.690;2022-12-13T17:25:13;-5.66;73.40
71082;SHT31;58740;50.672;18.690;2022-12-13T17:27:41;-5.64;72.71
71082;SHT31;58740;50.672;18.690;2022-12-13T17:30:10;-5.61;72.51
71082;SHT31;58740;50.672;18.690;2022-12-13T17:32:42;-5.61;72.37
71082;SHT31;58740;50.672;18.690;2022-12-13T17:35:11;-5.64;72.10
71082;SHT31;58740;50.672;18.690;2022-12-13T17:37:44;-5.69;72.08
71082;SHT31;58740;50.672;18.690;2022-12-13T17:40:12;-5.75;72.24
71082;SHT31;58740;50.672;18.690;2022-12-13T17:42:40;-5.78;72.23
71082;SHT31;58740;50.672;18.690;2022-12-13T17:45:08;-5.78;72.15
71082;SHT31;58740;50.672;18.690;2022-12-13T17:47:36;-5.76;71.92
71082;SHT31;58740;50.672;18.690;2022-12-13T17:50:05;-5.77;71.44
71082;SHT31;58740;50.672;18.690;2022-12-13T17:52:36;-5.84;70.92
71082;SHT31;58740;50.672;18.690;2022-12-13T17:55:07;-6.02;70.22
71082;SHT31;58740;50.672;18.690;2022-12-13T17:57:44;-6.18;70.87
71082;SHT31;58740;50.672;18.690;2022-12-13T18:00:12;-6.32;71.29
71082;SHT31;58740;50.672;18.690;2022-12-13T18:02:41;-6.42;71.76
71082;SHT31;58740;50.672;18.690;2022-12-13T18:05:22;-6.45;71.94
71082;SHT31;58740;50.672;18.690;2022-12-13T18:07:52;-6.47;71.84
71082;SHT31;58740;50.672;18.690;2022-12-13T18:10:20;-6.45;72.05
71082;SHT31;58740;50.672;18.690;2022-12-13T18:12:56;-6.39;71.78
71082;SHT31;58740;50.672;18.690;2022-12-13T18:15:24;-6.37;71.40